createdAt,value
2023-03-15T00:01:25.796Z,0.37
2023-03-15T00:03:55.617Z,0.20
2023-03-15T00:06:25.259Z,0.37
2023-03-15T00:08:54.670Z,0.23
2023-03-15T00:11:24.068Z,0.30
2023-03-15T00:13:53.495Z,0.40
2023-03-15T00:16:24.554Z,0.43
2023-03-15T00:18:55.750Z,0.30
2023-03-15T00:21:25.766Z,0.30
2023-03-15T00:23:55.193Z,0.27
2023-03-15T00:26:24.689Z,0.50
2023-03-15T00:28:54.114Z,0.20
2023-03-15T00:31:26.494Z,0.40
2023-03-15T00:33:55.949Z,0.30
2023-03-15T00:36:26.522Z,0.40
2023-03-15T00:38:57.714Z,0.50
2023-03-15T00:41:27.518Z,0.50
2023-03-15T00:43:56.932Z,0.70
2023-03-15T00:46:26.413Z,0.40
2023-03-15T00:48:55.852Z,0.30
2023-03-15T00:51:26.449Z,0.40
2023-03-15T00:53:56.149Z,0.40
2023-03-15T00:56:30.116Z,0.40
2023-03-15T00:59:01.262Z,0.20
2023-03-15T01:01:31.859Z,0.30
2023-03-15T01:04:01.427Z,0.30
2023-03-15T01:06:31.227Z,0.50
2023-03-15T01:09:01.601Z,0.30
2023-03-15T01:11:31.256Z,0.30
2023-03-15T01:14:03.192Z,0.40
2023-03-15T01:16:32.944Z,0.50
2023-03-15T01:19:02.556Z,0.20
2023-03-15T01:21:31.988Z,0.33
2023-03-15T01:24:01.422Z,0.40
2023-03-15T01:26:30.902Z,0.40
2023-03-15T01:29:00.337Z,0.30
2023-03-15T01:31:32.111Z,0.40
2023-03-15T01:34:01.945Z,0.20
2023-03-15T01:36:31.539Z,0.40
2023-03-15T01:39:00.980Z,0.30
2023-03-15T01:41:30.392Z,0.30
2023-03-15T01:43:59.836Z,0.30
2023-03-15T01:46:35.223Z,0.20
2023-03-15T01:49:18.029Z,0.30
2023-03-15T01:52:10.138Z,0.30
2023-03-15T01:54:52.924Z,0.30
2023-03-15T01:57:32.913Z,0.30
2023-03-15T02:00:13.486Z,0.60
2023-03-15T02:02:50.757Z,0.23
2023-03-15T02:05:27.167Z,0.20
2023-03-15T02:07:57.499Z,0.30
2023-03-15T02:10:40.484Z,0.27
2023-03-15T02:13:11.819Z,0.20
2023-03-15T02:15:43.513Z,0.20
2023-03-15T02:18:13.909Z,0.20
2023-03-15T02:21:07.516Z,0.10
2023-03-15T02:23:37.014Z,0.20
2023-03-15T02:26:20.087Z,0.20
2023-03-15T02:28:50.351Z,0.30
2023-03-15T02:31:19.870Z,0.40
2023-03-15T02:33:53.776Z,0.20
2023-03-15T02:36:30.113Z,0.30
2023-03-15T02:38:59.926Z,0.37
2023-03-15T02:41:36.973Z,0.30
2023-03-15T02:44:22.602Z,0.23
2023-03-15T02:46:55.828Z,0.33
2023-03-15T02:49:29.435Z,0.20
2023-03-15T02:51:59.121Z,0.20
2023-03-15T02:54:28.548Z,0.20
2023-03-15T02:56:57.974Z,0.30
2023-03-15T02:59:27.394Z,0.20
2023-03-15T03:01:56.834Z,0.30
2023-03-15T03:05:00.957Z,0.40
2023-03-15T03:07:30.954Z,0.27
2023-03-15T03:10:00.392Z,0.20
2023-03-15T03:12:29.820Z,0.40
2023-03-15T03:14:59.242Z,0.30
2023-03-15T03:17:28.671Z,0.20
2023-03-15T03:19:58.427Z,0.20
2023-03-15T03:22:27.858Z,0.30
2023-03-15T03:24:57.284Z,0.40
2023-03-15T03:27:40.748Z,0.27
2023-03-15T03:30:14.083Z,0.30
2023-03-15T03:33:04.489Z,0.20
2023-03-15T03:35:34.522Z,0.47
2023-03-15T03:38:03.990Z,0.20
2023-03-15T03:40:33.407Z,0.17
2023-03-15T03:43:02.850Z,0.20
2023-03-15T03:45:32.255Z,0.23
2023-03-15T03:48:02.024Z,0.50
2023-03-15T03:50:31.844Z,0.20
2023-03-15T03:53:01.240Z,0.20
2023-03-15T03:55:30.680Z,0.30
2023-03-15T03:58:00.294Z,0.30
2023-03-15T04:00:29.705Z,0.30
2023-03-15T04:02:59.133Z,0.20
2023-03-15T04:05:29.027Z,0.30
2023-03-15T04:07:58.523Z,0.20
2023-03-15T04:10:28.093Z,0.20
2023-03-15T04:12:58.968Z,0.23
2023-03-15T04:15:28.668Z,0.40
2023-03-15T04:17:58.492Z,0.30
2023-03-15T04:20:29.091Z,0.20
2023-03-15T04:22:58.517Z,0.20
2023-03-15T04:25:28.587Z,0.30
2023-03-15T04:28:02.581Z,0.20
2023-03-15T04:30:32.646Z,0.20
2023-03-15T04:33:03.556Z,0.33
2023-03-15T04:35:35.760Z,0.30
2023-03-15T04:38:06.076Z,0.20
2023-03-15T04:40:35.761Z,0.30
2023-03-15T04:43:06.832Z,0.40
2023-03-15T04:45:36.250Z,0.20
2023-03-15T04:48:05.840Z,0.43
2023-03-15T04:50:35.267Z,0.30
2023-03-15T04:53:04.702Z,0.30
2023-03-15T04:55:34.110Z,0.30
2023-03-15T04:58:03.549Z,0.30
2023-03-15T05:00:33.061Z,0.40
2023-03-15T05:03:02.457Z,0.30
2023-03-15T05:05:34.548Z,0.40
2023-03-15T05:08:04.112Z,0.30
2023-03-15T05:10:33.534Z,0.30
2023-03-15T05:13:02.956Z,0.30
2023-03-15T05:15:32.456Z,0.20
2023-03-15T05:18:01.912Z,0.30
2023-03-15T05:20:31.941Z,0.30
2023-03-15T05:23:01.380Z,0.30
2023-03-15T05:25:30.787Z,0.20
2023-03-15T05:28:00.228Z,0.20
2023-03-15T05:30:29.653Z,0.43
2023-03-15T05:32:59.445Z,0.30
2023-03-15T05:35:28.924Z,0.37
2023-03-15T05:37:58.323Z,0.23
2023-03-15T05:40:29.382Z,0.50
2023-03-15T05:42:59.051Z,0.40
2023-03-15T05:45:28.480Z,0.40
2023-03-15T05:47:57.906Z,0.20
2023-03-15T05:50:28.295Z,0.50
2023-03-15T05:52:58.076Z,0.60
2023-03-15T05:55:27.513Z,0.40
2023-03-15T05:57:56.932Z,0.70
2023-03-15T06:00:26.362Z,0.30
2023-03-15T06:02:55.800Z,0.40
2023-03-15T06:05:25.630Z,0.50
2023-03-15T06:07:55.063Z,0.40
2023-03-15T06:10:24.501Z,0.70
2023-03-15T06:12:55.432Z,0.50
2023-03-15T06:15:24.895Z,0.50
2023-03-15T06:17:54.465Z,0.53
2023-03-15T06:20:24.187Z,0.43
2023-03-15T06:22:53.613Z,0.47
2023-03-15T06:25:23.040Z,0.50
2023-03-15T06:27:52.461Z,0.40
2023-03-15T06:30:21.971Z,0.50
2023-03-15T06:32:51.422Z,0.40
2023-03-15T06:35:21.182Z,0.53
2023-03-15T06:37:52.542Z,0.30
2023-03-15T06:40:21.971Z,0.50
2023-03-15T06:42:51.396Z,0.47
2023-03-15T06:45:20.995Z,0.77
2023-03-15T06:47:50.484Z,0.40
2023-03-15T06:50:20.138Z,0.50
2023-03-15T06:52:50.240Z,0.33
2023-03-15T06:55:19.666Z,0.60
2023-03-15T06:57:49.094Z,0.47
2023-03-15T07:00:19.123Z,0.77
2023-03-15T07:02:48.733Z,0.50
2023-03-15T07:05:18.421Z,0.60
2023-03-15T07:07:47.814Z,0.40
2023-03-15T07:10:17.692Z,0.40
2023-03-15T07:12:47.110Z,0.30
2023-03-15T07:15:17.592Z,0.60
2023-03-15T07:17:47.179Z,0.60
2023-03-15T07:20:16.705Z,0.30
2023-03-15T07:22:46.140Z,0.50
2023-03-15T07:25:15.619Z,0.43
2023-03-15T07:27:45.113Z,0.73
2023-03-15T07:30:15.064Z,1.00
2023-03-15T07:32:44.745Z,0.80
2023-03-15T07:35:15.183Z,0.73
2023-03-15T07:37:44.994Z,0.80
2023-03-15T07:40:16.312Z,0.87
2023-03-15T07:42:45.835Z,0.83
2023-03-15T07:45:15.358Z,0.70
2023-03-15T07:47:45.152Z,0.70
2023-03-15T07:50:17.150Z,0.87
2023-03-15T07:52:46.755Z,0.80
2023-03-15T07:55:16.261Z,1.00
2023-03-15T07:57:46.808Z,0.60
2023-03-15T08:00:17.420Z,0.70
2023-03-15T08:02:47.208Z,0.70
2023-03-15T08:05:18.407Z,1.00
2023-03-15T08:07:49.644Z,0.63
2023-03-15T08:10:20.014Z,0.70
2023-03-15T08:12:49.431Z,0.77
2023-03-15T08:15:19.503Z,0.80
2023-03-15T08:17:51.824Z,0.80
2023-03-15T08:20:21.390Z,0.80
2023-03-15T08:22:51.718Z,1.03
2023-03-15T08:25:25.148Z,0.77
2023-03-15T08:27:54.975Z,0.77
2023-03-15T08:30:25.021Z,0.93
2023-03-15T08:32:54.504Z,0.70
2023-03-15T08:35:24.355Z,0.90
2023-03-15T08:37:53.852Z,0.90
2023-03-15T08:40:26.657Z,0.80
2023-03-15T08:42:57.594Z,1.00
2023-03-15T08:45:28.531Z,1.00
2023-03-15T08:48:02.225Z,1.10
2023-03-15T08:50:32.694Z,0.80
2023-03-15T08:53:02.135Z,1.03
2023-03-15T08:55:31.562Z,1.00
2023-03-15T08:58:01.725Z,1.23
2023-03-15T09:00:32.877Z,0.80
2023-03-15T09:03:02.408Z,0.80
2023-03-15T09:05:31.865Z,0.87
2023-03-15T09:08:01.938Z,1.00
2023-03-15T09:10:31.421Z,1.33
2023-03-15T09:13:00.981Z,0.70
2023-03-15T09:15:30.561Z,1.00
2023-03-15T09:17:59.978Z,1.20
2023-03-15T09:20:29.583Z,1.27
2023-03-15T09:23:00.042Z,1.83
2023-03-15T09:25:29.545Z,1.10
2023-03-15T09:27:58.969Z,1.20
2023-03-15T09:30:29.077Z,1.17
2023-03-15T09:32:58.512Z,1.20
2023-03-15T09:35:28.155Z,1.40
2023-03-15T09:37:57.647Z,2.70
2023-03-15T09:40:45.269Z,3.83
2023-03-15T09:43:50.313Z,3.03
2023-03-15T09:46:33.017Z,2.20
2023-03-15T09:49:12.452Z,1.60
2023-03-15T09:51:54.736Z,1.40
2023-03-15T09:54:34.441Z,0.90
2023-03-15T09:57:17.027Z,1.00
2023-03-15T09:59:51.024Z,1.00
2023-03-15T10:02:30.999Z,1.10
2023-03-15T10:05:10.963Z,1.03
2023-03-15T10:07:41.324Z,1.23
2023-03-15T10:10:27.309Z,1.10
2023-03-15T10:13:42.398Z,1.37
2023-03-15T10:16:42.946Z,1.23
2023-03-15T10:19:53.560Z,0.90
2023-03-15T10:22:36.568Z,1.30
2023-03-15T10:25:32.090Z,0.90
2023-03-15T10:28:17.413Z,0.90
2023-03-15T10:30:54.898Z,0.90
2023-03-15T10:33:37.424Z,0.93
2023-03-15T10:36:20.262Z,1.07
2023-03-15T10:38:50.520Z,0.90
2023-03-15T10:41:45.744Z,0.83
2023-03-15T10:44:26.376Z,1.10
2023-03-15T10:47:22.078Z,0.97
2023-03-15T10:49:42.432Z,0.90
2023-03-15T10:52:37.181Z,0.70
2023-03-15T10:55:16.983Z,0.80
2023-03-15T10:58:00.996Z,0.90
2023-03-15T11:00:36.953Z,0.80
2023-03-15T11:03:20.497Z,0.80
2023-03-15T11:05:54.353Z,0.90
2023-03-15T11:08:31.052Z,0.80
2023-03-15T11:11:02.073Z,0.90
2023-03-15T11:13:35.393Z,0.80
2023-03-15T11:16:15.521Z,0.70
2023-03-15T11:18:58.223Z,1.00
2023-03-15T11:21:36.842Z,0.80
2023-03-15T11:24:08.515Z,1.13
2023-03-15T11:26:41.561Z,0.60
2023-03-15T11:29:31.627Z,0.67
2023-03-15T11:32:05.015Z,0.80
2023-03-15T11:34:44.956Z,0.90
2023-03-15T11:37:28.130Z,0.90
2023-03-15T11:40:26.269Z,1.30
2023-03-15T11:43:36.376Z,1.03
2023-03-15T11:46:13.564Z,1.03
2023-03-15T11:49:13.054Z,0.77
2023-03-15T11:51:42.764Z,0.93
2023-03-15T11:54:21.431Z,0.97
2023-03-15T11:57:06.507Z,0.90
2023-03-15T11:59:39.970Z,1.13
2023-03-15T12:02:17.203Z,0.70
2023-03-15T12:04:49.188Z,0.90
2023-03-15T12:07:26.232Z,0.80
2023-03-15T12:10:08.413Z,0.83
2023-03-15T12:12:39.352Z,0.97
2023-03-15T12:15:25.338Z,0.80
2023-03-15T12:18:09.359Z,0.90
2023-03-15T12:20:45.521Z,0.77
2023-03-15T12:23:25.434Z,1.30
2023-03-15T12:26:11.421Z,0.90
2023-03-15T12:28:45.509Z,0.83
2023-03-15T12:31:16.323Z,0.77
2023-03-15T12:33:50.450Z,0.97
2023-03-15T12:36:39.826Z,0.80
2023-03-15T12:39:23.147Z,0.50
2023-03-15T12:41:53.574Z,0.87
2023-03-15T12:44:39.525Z,0.80
2023-03-15T12:47:12.525Z,0.70
2023-03-15T12:49:48.745Z,0.60
2023-03-15T12:52:40.846Z,0.70
2023-03-15T12:55:14.897Z,0.50
2023-03-15T12:57:54.206Z,0.60
2023-03-15T13:00:27.561Z,0.70
2023-03-15T13:03:19.320Z,0.37
2023-03-15T13:06:29.149Z,0.60
2023-03-15T13:09:34.996Z,0.50
2023-03-15T13:12:15.382Z,0.70
2023-03-15T13:14:55.516Z,0.80
2023-03-15T13:17:50.258Z,0.50
2023-03-15T13:20:45.562Z,0.60
2023-03-15T13:23:26.165Z,0.80
2023-03-15T13:26:33.594Z,1.00
2023-03-15T13:29:17.792Z,0.80
2023-03-15T13:31:48.389Z,0.60
2023-03-15T13:34:25.133Z,0.50
2023-03-15T13:37:01.671Z,0.50
2023-03-15T13:39:35.139Z,0.77
2023-03-15T13:42:23.170Z,0.67
2023-03-15T13:45:16.819Z,0.50
2023-03-15T13:47:47.952Z,0.60
2023-03-15T13:50:21.202Z,0.50
2023-03-15T13:52:51.262Z,0.30
2023-03-15T13:55:25.324Z,0.50
2023-03-15T13:58:02.415Z,0.40
2023-03-15T14:00:36.352Z,0.60
2023-03-15T14:03:09.584Z,0.50
2023-03-15T14:05:49.202Z,0.50
2023-03-15T14:08:32.489Z,0.40
2023-03-15T14:11:15.431Z,0.30
2023-03-15T14:13:59.690Z,0.60
2023-03-15T14:16:40.261Z,0.40
2023-03-15T14:19:20.696Z,0.50
2023-03-15T14:21:59.942Z,0.30
2023-03-15T14:24:33.975Z,0.37
2023-03-15T14:27:11.069Z,0.83
2023-03-15T14:29:55.153Z,0.60
2023-03-15T14:32:29.381Z,0.50
2023-03-15T14:35:09.613Z,0.30
2023-03-15T14:37:44.285Z,0.70
2023-03-15T14:40:36.258Z,0.60
2023-03-15T14:43:08.583Z,0.50
2023-03-15T14:45:41.792Z,0.50
2023-03-15T14:48:22.302Z,0.40
2023-03-15T14:50:51.740Z,0.57
2023-03-15T14:53:26.162Z,0.63
2023-03-15T14:55:55.738Z,0.40
2023-03-15T14:58:25.428Z,0.63
2023-03-15T15:00:58.075Z,0.60
2023-03-15T15:03:34.622Z,0.50
2023-03-15T15:06:06.335Z,0.73
2023-03-15T15:08:39.407Z,0.60
2023-03-15T15:11:09.857Z,0.53
2023-03-15T15:13:41.168Z,0.60
2023-03-15T15:16:11.160Z,0.60
2023-03-15T15:18:40.578Z,0.30
2023-03-15T15:21:20.020Z,0.73
2023-03-15T15:23:59.176Z,0.50
2023-03-15T15:26:26.128Z,0.60
2023-03-15T15:28:56.605Z,0.30
2023-03-15T15:31:29.042Z,0.53
2023-03-15T15:33:58.719Z,0.30
2023-03-15T15:39:07.197Z,0.53
2023-03-15T15:41:36.885Z,1.07
2023-03-15T15:44:07.977Z,0.80
2023-03-15T15:46:37.440Z,0.50
2023-03-15T15:49:06.865Z,0.37
2023-03-15T15:51:50.047Z,0.40
2023-03-15T15:54:24.052Z,0.30
2023-03-15T15:56:59.681Z,0.30
2023-03-15T15:59:30.713Z,0.20
2023-03-15T16:02:02.262Z,0.17
2023-03-15T16:04:32.831Z,0.20
2023-03-15T16:07:04.486Z,0.30
2023-03-15T16:09:36.321Z,0.20
2023-03-15T16:12:15.428Z,0.30
2023-03-15T16:14:44.983Z,0.20
2023-03-15T16:17:25.667Z,0.10
2023-03-15T16:19:55.944Z,0.20
2023-03-15T16:22:27.119Z,0.30
2023-03-15T16:25:01.486Z,0.17
2023-03-15T16:27:31.464Z,0.33
2023-03-15T16:30:02.071Z,0.10
2023-03-15T16:32:43.478Z,0.30
2023-03-15T16:35:05.301Z,0.30
2023-03-15T16:37:35.893Z,0.20
2023-03-15T16:40:07.680Z,0.20
2023-03-15T16:42:37.127Z,0.30
2023-03-15T16:45:13.061Z,0.20
2023-03-15T16:47:42.519Z,0.40
2023-03-15T16:50:13.197Z,0.37
2023-03-15T16:52:45.044Z,0.30
2023-03-15T16:55:21.372Z,0.33
2023-03-15T16:57:50.896Z,0.43
2023-03-15T17:00:20.674Z,0.30
2023-03-15T17:02:54.447Z,0.50
2023-03-15T17:05:24.794Z,0.50
2023-03-15T17:07:56.338Z,0.40
2023-03-15T17:10:30.540Z,0.43
2023-03-15T17:13:03.265Z,0.30
2023-03-15T17:15:34.054Z,0.30
2023-03-15T17:18:03.560Z,0.30
2023-03-15T17:20:34.043Z,0.30
2023-03-15T17:23:05.895Z,0.30
2023-03-15T17:25:36.147Z,0.20
2023-03-15T17:28:06.816Z,0.20
2023-03-15T17:30:38.868Z,0.30
2023-03-15T17:33:08.399Z,0.17
2023-03-15T17:35:42.629Z,0.20
2023-03-15T17:38:21.886Z,0.30
2023-03-15T17:40:51.770Z,0.20
2023-03-15T17:43:21.383Z,0.20
2023-03-15T17:45:52.266Z,0.40
2023-03-15T17:48:22.203Z,0.30
2023-03-15T17:50:51.606Z,0.40
2023-03-15T17:53:22.171Z,0.40
2023-03-15T17:55:53.473Z,0.50
2023-03-15T17:58:27.259Z,0.30
2023-03-15T18:00:56.776Z,0.30
2023-03-15T18:03:27.702Z,0.40
2023-03-15T18:05:57.621Z,0.30
2023-03-15T18:08:27.057Z,0.33
2023-03-15T18:10:56.471Z,0.20
2023-03-15T18:13:27.261Z,0.37
2023-03-15T18:15:56.755Z,0.33
2023-03-15T18:18:26.662Z,0.30
2023-03-15T18:20:56.082Z,0.40
2023-03-15T18:23:25.529Z,0.30
2023-03-15T18:25:54.947Z,0.40
2023-03-15T18:28:24.391Z,0.30
2023-03-15T18:30:53.807Z,0.40
2023-03-15T18:33:23.252Z,0.50
2023-03-15T18:35:53.595Z,0.30
2023-03-15T18:38:23.596Z,0.20
2023-03-15T18:40:53.056Z,0.40
2023-03-15T18:43:23.654Z,0.30
2023-03-15T18:45:53.503Z,0.33
2023-03-15T18:48:34.178Z,0.60
2023-03-15T18:50:55.753Z,0.50
2023-03-15T18:53:25.193Z,0.37
2023-03-15T18:55:54.635Z,0.30
2023-03-15T18:58:24.167Z,0.30
2023-03-15T19:00:53.650Z,0.20
2023-03-15T19:03:23.114Z,0.30
2023-03-15T19:05:53.685Z,0.30
2023-03-15T19:08:23.131Z,0.40
2023-03-15T19:10:58.956Z,0.20
2023-03-15T19:13:29.225Z,0.40
2023-03-15T19:15:58.809Z,0.30
2023-03-15T19:18:28.304Z,0.30
2023-03-15T19:20:57.754Z,0.40
2023-03-15T19:23:27.525Z,0.30
2023-03-15T19:25:57.016Z,0.20
2023-03-15T19:28:26.457Z,0.40
2023-03-15T19:30:56.000Z,0.20
2023-03-15T19:33:25.510Z,0.30
2023-03-15T19:35:55.052Z,0.20
2023-03-15T19:38:24.446Z,0.20
2023-03-15T19:40:55.697Z,0.30
2023-03-15T19:43:26.464Z,0.20
2023-03-15T19:45:56.015Z,0.30
2023-03-15T19:48:25.421Z,0.20
2023-03-15T19:50:54.995Z,0.57
2023-03-15T19:53:25.551Z,0.80
2023-03-15T19:55:54.972Z,0.57
2023-03-15T19:58:24.526Z,0.80
2023-03-15T20:00:57.317Z,0.50
2023-03-15T20:03:27.105Z,0.80
2023-03-15T20:05:56.578Z,0.80
2023-03-15T20:08:26.456Z,0.97
2023-03-15T20:11:02.125Z,0.80
2023-03-15T20:13:32.376Z,0.77
2023-03-15T20:16:02.328Z,0.73
2023-03-15T20:18:32.110Z,0.70
2023-03-15T20:21:01.546Z,0.80
2023-03-15T20:23:31.217Z,1.10
2023-03-15T20:26:14.047Z,0.70
2023-03-15T20:28:44.995Z,0.93
2023-03-15T20:31:18.547Z,0.97
2023-03-15T20:33:50.923Z,0.60
2023-03-15T20:36:21.861Z,0.90
2023-03-15T20:38:51.286Z,0.70
2023-03-15T20:41:20.910Z,0.90
2023-03-15T20:43:50.396Z,1.00
2023-03-15T20:46:20.448Z,0.67
2023-03-15T20:48:49.891Z,0.77
2023-03-15T20:51:19.683Z,0.53
2023-03-15T20:53:49.701Z,0.90
2023-03-15T20:56:19.199Z,0.70
2023-03-15T20:58:48.803Z,1.23
2023-03-15T21:01:18.384Z,1.30
2023-03-15T21:03:48.512Z,1.47
2023-03-15T21:06:17.973Z,1.30
2023-03-15T21:08:47.411Z,1.30
2023-03-15T21:11:16.864Z,1.00
2023-03-15T21:13:46.494Z,0.80
2023-03-15T21:16:16.645Z,0.70
2023-03-15T21:18:47.763Z,0.80
2023-03-15T21:21:17.243Z,0.90
2023-03-15T21:23:46.671Z,0.90
2023-03-15T21:26:16.155Z,0.60
2023-03-15T21:28:46.767Z,0.57
2023-03-15T21:31:16.712Z,0.70
2023-03-15T21:33:46.137Z,0.60
2023-03-15T21:36:15.555Z,0.50
2023-03-15T21:38:44.989Z,0.60
2023-03-15T21:41:14.451Z,0.50
2023-03-15T21:43:43.918Z,0.60
2023-03-15T21:46:14.800Z,0.50
2023-03-15T21:48:44.372Z,0.50
2023-03-15T21:51:14.704Z,0.70
2023-03-15T21:53:46.261Z,0.60
2023-03-15T21:56:15.711Z,0.60
2023-03-15T21:58:45.331Z,0.80
2023-03-15T22:01:14.888Z,0.67
2023-03-15T22:03:44.482Z,0.57
2023-03-15T22:06:13.961Z,0.63
2023-03-15T22:08:43.759Z,0.70
2023-03-15T22:11:13.233Z,0.60
2023-03-15T22:13:42.753Z,0.63
2023-03-15T22:16:13.485Z,0.50
2023-03-15T22:18:42.916Z,0.50
2023-03-15T22:21:12.330Z,0.47
2023-03-15T22:23:41.767Z,0.57
2023-03-15T22:26:11.190Z,0.90
2023-03-15T22:28:40.984Z,0.80
2023-03-15T22:31:13.413Z,0.60
2023-03-15T22:33:43.345Z,0.50
2023-03-15T22:36:14.588Z,0.80
2023-03-15T22:38:45.840Z,0.60
2023-03-15T22:41:15.256Z,0.70
2023-03-15T22:43:45.509Z,0.60
2023-03-15T22:46:15.001Z,0.50
2023-03-15T22:48:44.541Z,0.43
2023-03-15T22:51:17.625Z,0.30
2023-03-15T22:53:47.077Z,0.60
2023-03-15T22:56:16.839Z,0.57
2023-03-15T22:58:47.284Z,0.70
2023-03-15T23:01:16.747Z,0.40
2023-03-15T23:03:46.171Z,0.40
2023-03-15T23:06:15.599Z,0.40
2023-03-15T23:08:45.498Z,0.40
2023-03-15T23:11:14.926Z,0.50
2023-03-15T23:13:46.334Z,0.40
2023-03-15T23:16:17.458Z,0.50
2023-03-15T23:18:48.597Z,0.40
2023-03-15T23:21:18.034Z,0.80
2023-03-15T23:23:47.457Z,0.30
2023-03-15T23:26:18.717Z,0.30
2023-03-15T23:28:48.231Z,0.40
2023-03-15T23:31:17.728Z,0.60
2023-03-15T23:33:50.259Z,0.40
2023-03-15T23:36:19.687Z,0.50
2023-03-15T23:38:49.123Z,0.50
2023-03-15T23:41:18.539Z,0.40
2023-03-15T23:43:47.963Z,0.50
2023-03-15T23:46:17.832Z,0.40
2023-03-15T23:48:47.785Z,0.40
2023-03-15T23:51:17.217Z,0.47
2023-03-15T23:53:46.715Z,0.40
2023-03-15T23:56:16.399Z,0.47
2023-03-15T23:58:45.822Z,0.30
